Aérodrome :
LOGIN :

S'inscrire | Disclaimer

   EN    FR    IT 

 










Légende :    VFR   VFR Marginal   IFR   IFR Intensif   IFR Très Intensif
Visi : 
Plafond : 
>= 8 km
>= 3000ft
5 à 8 km
1000 à 3000 ft
1500m à 5 km
500 à 1000 ft
800 à 1500m
200 à 500 ft
< 800m
< 200 ft
Symboles :   Orages  Brouillard  Fortes neiges  Fortes précipitations  Vent > 20 kt
SIGMETs :   Divers  Orages  Givrage  Turbulence  Onde Orograph.  Cendres Volcan.






- Altitude de l'aérodrome : 257 ft
- Code IATA : MAN


EGCC - Manchester

DERNIER METAR :
  • 142020Z AUTO 18005KT 120V220 3000 +RA BKN017/// BKN024/// OVC030/// //////TCU 03/01 Q0986 TEMPO RA BKN008

METARs EXPIRÉS :
  • 141950Z AUTO 19006KT 130V220 5000 -RA BKN015/// OVC027/// //////TCU 04/02 Q0986 TEMPO RA
  • 141920Z AUTO 22005KT 180V270 9999 -RA BKN022/// BKN028/// OVC039/// //////TCU 04/02 Q0987 TEMPO RA
  • 141850Z AUTO 20010KT 170V230 9999 FEW045 05/01 Q0987 TEMPO RA
  • 141820Z AUTO 20007KT 170V250 9999 NCD 05/00 Q0987 NOSIG
  • 141750Z AUTO 20005KT 170V230 9999 NCD 05/M00 Q0987

TAF TAF EGCC
Valide du 14 à 18h jusqu'au 16 à 00h UTC


141654Z 1418/1524 24014KT 9999 FEW010 SCT030
BECMG 1418/1421 18010KT BKN010
TEMPO 1419/1502 8000 -RA BKN008
PROB30
TEMPO 1421/1502 4000 RA BKN004
BECMG 1502/1505 24012KT SCT025
PROB30
TEMPO 1502/1509 6000 SHRA
BECMG 1512/1515 18009KT
PROB40
TEMPO 1515/1524 6000 SHRAGS BKN014
ATIS : +44 161 499 2324



MET'MAP, la Météo Aéronautique d'un coup d'oeil ! - Copyright ORBIFLY Décembre 2007 - Disclaimer

ORBIFLY MET'MAP TEAM :

Programmation & Développement : Alexandra Zaïnal
Sur une idée originale de : Baudouin d'Aumeries
Assistance à la programmation : Marc-Olivier Méhu
Soutien technique & logistique : Manuel Goepfert

Contact : metmap@orbifly.com




SOURCES & CREDITS :

   NOAA